• Join FlightAware (Why Join?)
  • Login
  • US Flag 
06:15PM EDT


 

Airport Tracker/Info


-or-


 

Live Flight TrackerFlight Track Log ✈ DAL2432 ✈ 14-May-2013 ✈ KSLC - KMCI

Flight Track Log - Related Links

Times and Time Zones

All times are in EDT time to prevent confusion due to time zone crossing. See the DAL2432 flight status page for this flight to view local times or setup timezone preferences in your user account.

Time Position Orientation Groundspeed Altitude Reporting Facility
EDT Latitude Longitude Course Direction KTS MPH feet Rate Location/Type
10:35PM 40.8033 -111.9633 90° East 153 176 4,900  Level Salt Lake Center
10:35PM 40.8369 -111.9692 353° North 184 212 5,900 1,620 Climbing Salt Lake Center
10:36PM 40.9053 -111.9769 355° North 250 288 7,600 1,620 Climbing Salt Lake Center
10:37PM 40.9186 -111.9786 355° North 249 287 8,100 2,580 Climbing Salt Lake Center
10:38PM 41.1215 -111.7812 114° Southeast  Level FlightAware Approximate
10:38PM 40.9950 -111.9903 353° North 270 311 11,100  Level Salt Lake Center
10:39PM 41.0453 -111.6567 133° Southeast  Level FlightAware Approximate
10:39PM 41.0639 -111.9531 22° Northeast 301 346 13,600  Level Salt Lake Center
10:40PM 41.0333 -111.5129 90° East  Level FlightAware Approximate
10:40PM 41.0606 -111.8150 92° East 361 415 15,000  Level Salt Lake Center
10:41PM 41.0567 -111.6619 92° East 404 465 17,300 2,340 Climbing Salt Lake Center
10:42PM 41.0567 -111.5075 90° East 419 482 19,900 2,280 Climbing Salt Lake Center
10:43PM 41.0656 -111.3494 86° East 431 496 22,000 1,980 Climbing Salt Lake Center
10:44PM 41.0722 -111.1889 87° East 437 503 24,000 1,860 Climbing Salt Lake Center
10:45PM 41.0800 -111.0219 86° East 453 521 25,800 1,740 Climbing Salt Lake Center
10:46PM 41.0906 -110.8189 86° East 461 531 27,600 1,440 Climbing Salt Lake Center
10:47PM 41.0969 -110.6461 87° East 469 540 28,800 1,080 Climbing Salt Lake Center
10:48PM 41.1061 -110.4808 86° East 483 556 29,900 1,200 Climbing Salt Lake Center
10:49PM 41.1136 -110.2803 87° East 488 562 31,300 1,440 Climbing Salt Lake Center
10:50PM 41.1206 -110.1100 87° East 485 558 32,900 1,440 Climbing Salt Lake Center
10:51PM 41.1283 -109.9136 87° East 481 554 34,300 1,200 Climbing Salt Lake Center
10:52PM 41.1339 -109.7456 87° East 480 552 35,400 900 Climbing Salt Lake Center
10:53PM 41.1406 -109.5803 87° East 472 543 36,200 780 Climbing Salt Lake Center
10:54PM 41.1467 -109.3842 88° East 478 550 37,100 840 Climbing Salt Lake Center
10:55PM 41.1519 -109.2183 88° East 476 548 38,000 780 Climbing Salt Lake Center
10:56PM 41.1583 -109.0258 87° East 473 544 38,800 480 Climbing Salt Lake Center
10:57PM 41.1642 -108.8619 87° East 470 541 39,000 60 Climbing Salt Lake Center
10:58PM 41.1694 -108.6714 88° East 468 539 39,000  Level Salt Lake Center
10:59PM 41.1744 -108.5086 88° East 465 535 39,000  Level Salt Lake Center
11:00PM 41.1792 -108.3119 88° East 470 541 39,000  Level Denver Center
11:01PM 41.1831 -108.1461 88° East 472 543 39,000  Level Denver Center
11:02PM 41.1864 -107.9811 88° East 470 541 39,000  Level Denver Center
11:03PM 41.1908 -107.7886 88° East 468 539 39,000  Level Denver Center
11:04PM 41.1931 -107.6244 89° East 466 536 39,000  Level Denver Center
11:05PM 41.1978 -107.4319 88° East 468 539 39,000  Level Denver Center
11:06PM 41.1989 -107.2678 89° East 466 536 39,000  Level Denver Center
11:07PM 41.2022 -107.1031 88° East 467 537 39,000  Level Denver Center
11:08PM 41.2056 -106.9117 89° East 465 535 39,000  Level Denver Center
11:10PM 41.2067 -106.7475 89° East 465 535 39,000  Level Denver Center
11:11PM 41.2083 -106.5825 89° East 467 537 39,000  Level Denver Center
11:12PM 41.2111 -106.3906 89° East 466 536 39,000  Level Denver Center
11:13PM 41.2125 -106.2283 89° East 461 531 39,000  Level Denver Center
11:14PM 41.2114 -106.0419 90° East 455 524 39,000  Level Denver Center
11:15PM 41.2147 -105.8836 88° East 452 520 39,000  Level Denver Center
11:16PM 41.2136 -105.7225 90° East 454 522 39,000  Level Denver Center
11:17PM 41.2131 -105.5353 90° East 456 525 39,000  Level Denver Center
11:18PM 41.2108 -105.3714 91° East 459 528 39,000  Level Denver Center
11:19PM 41.2111 -105.2136 90° East 454 522 39,000  Level Denver Center
11:20PM 41.2111 -105.0328 90° East 444 511 39,000  Level Denver Center
11:21PM 41.2108 -104.8717 90° East 453 521 39,000  Level Denver Center
11:22PM 41.2056 -104.6833 92° East 457 526 39,000  Level Denver Center
11:23PM 41.1956 -104.5247 95° East 455 524 39,000  Level Denver Center
11:24PM 41.1878 -104.3636 94° East 458 527 39,000  Level Denver Center
11:25PM 41.1756 -104.1761 95° East 458 527 39,000  Level Denver Center
11:26PM 41.1653 -104.0142 95° East 461 531 39,100  Climbing Denver Center
11:27PM 41.1550 -103.8556 95° East 453 521 39,000 -60 Descending Denver Center
11:28PM 41.1433 -103.6686 95° East 453 521 39,000  Level Denver Center
11:29PM 41.1328 -103.5108 95° East 450 518 39,000  Level Denver Center
11:30PM 41.1206 -103.3267 95° East 449 517 39,000  Level Denver Center
11:31PM 41.1083 -103.1697 96° East 448 516 39,000  Level Denver Center
11:32PM 41.0981 -103.0119 95° East 449 517 39,000  Level Denver Center
11:33PM 41.0822 -102.8367 97° East 446 513 39,000  Level Denver Center
11:34PM 41.0656 -102.6814 98° East 445 512 39,000  Level Denver Center
11:35PM 41.0456 -102.5000 98° East 446 513 39,000  Level Denver Center
11:36PM 41.0297 -102.3428 98° East 449 517 39,000  Level Denver Center
11:37PM 41.0136 -102.1853 98° East 452 520 39,000  Level Denver Center
11:38PM 40.9908 -102.0000 99° East 455 524 39,100  Climbing Denver Center
11:39PM 40.9750 -101.8392 97° East 459 528 39,000  Descending Denver Center
11:40PM 40.9575 -101.6808 98° East 456 525 39,100  Climbing Denver Center
11:41PM 40.9367 -101.4978 99° East 451 519 39,000 -60 Descending Denver Center
11:42PM 40.9156 -101.3431 100° East 447 514 39,000  Level Denver Center
11:43PM 40.8908 -101.1900 102° East 444 511 39,000  Level Denver Center
11:44PM 40.8636 -101.0114 101° East 444 511 39,000  Level Denver Center
11:45PM 40.8400 -100.8617 102° East 448 516 39,000  Level Denver Center
11:46PM 40.8122 -100.6864 102° East 451 519 39,000  Level Denver Center
11:47PM 40.7889 -100.5311 101° East 451 519 39,000  Level Denver Center
11:48PM 40.7603 -100.3553 102° East 441 507 39,000  Level Denver Center
11:49PM 40.7356 -100.2033 102° East 443 510 39,000  Level Denver Center
11:50PM 40.7108 -100.0503 102° East 446 513 39,000  Level Denver Center
11:51PM 40.6814 -99.8725 102° East 447 514 39,000  Level Denver Center
11:52PM 40.6553 -99.7136 102° East 442 509 39,000  Level Denver Center
11:53PM 40.6283 -99.5575 103° East 440 506 39,000  Level Denver Center
11:54PM 40.6017 -99.4017 103° East 438 504 39,000  Level Denver Center
11:55PM 40.5756 -99.2458 102° East 439 505 39,000  Level Denver Center
11:56PM 40.5489 -99.0903 103° East 439 505 39,000  Level Denver Center
11:57PM 40.5275 -98.9656 103° East 443 510 39,000  Level Minneapolis Center
11:58PM 40.4994 -98.8094 103° East 442 509 39,100  Climbing Minneapolis Center
11:59PM 40.4725 -98.6533 103° East 442 509 39,000 -60 Descending Minneapolis Center
12:00AM 40.4386 -98.4689 104° East 437 503 39,000  Level Minneapolis Center
12:01AM 40.4117 -98.3144 103° East 436 502 39,000  Level Minneapolis Center
12:02AM 40.3839 -98.1608 103° East 434 499 39,000  Level Minneapolis Center
12:03AM 40.3558 -98.0061 103° East 436 502 39,000  Level Minneapolis Center
12:04AM 40.3269 -97.8514 104° East 438 504 39,000 -480 Level Minneapolis Center
12:05AM 40.2989 -97.6972 103° East 437 503 38,000 -900 Descending Minneapolis Center
12:07AM 40.2633 -97.5081 104° East 444 511 36,900 -1,080 Descending Minneapolis Center
12:08AM 40.2269 -97.3178 104° East 449 517 35,700 -1,080 Descending Minneapolis Center
12:09AM 40.1853 -97.1731 111° Southeast 453 521 34,800 -960 Descending Minneapolis Center
12:10AM 40.1403 -97.0186 111° Southeast 456 525 33,800 -1,020 Descending Minneapolis Center
12:11AM 40.0933 -96.8606 111° Southeast 464 534 32,800 -1,080 Descending Minneapolis Center
12:12AM 40.0361 -96.6697 111° Southeast 471 542 31,700 -1,080 Descending Minneapolis Center
12:13AM 39.9886 -96.5122 111° Southeast 470 541 30,700 -1,200 Descending Minneapolis Center
12:14AM 39.9403 -96.3558 112° Southeast 469 540 29,400 -2,040 Descending Minneapolis Center
12:15AM 39.8925 -96.1989 112° Southeast 468 539 26,700 -2,760 Descending Minneapolis Center
12:16AM 39.8469 -96.0519 112° Southeast 448 516 23,900 -2,700 Descending Minneapolis Center
12:16AM 39.8358 -96.0158 112° Southeast 434 499 23,200 -2,460 Descending Kansas City Center
12:17AM 39.7942 -95.8819 112° Southeast 419 482 20,700 -2,880 Descending Kansas City Center
12:18AM 39.7486 -95.7314 111° Southeast 401 461 17,500 -2,880 Descending Kansas City Center
12:19AM 39.7103 -95.6086 112° Southeast 384 442 15,000 -2,640 Descending Kansas City Center
12:20AM 39.6694 -95.4919 114° Southeast 371 427 12,200 -2,280 Descending Kansas City Center
12:21AM 39.6314 -95.3742 113° Southeast 368 423 10,500 -1,500 Descending Kansas City Center
12:22AM 39.5900 -95.2578 115° Southeast 317 365 9,200 -1,560 Descending Kansas City Center
12:23AM 39.5564 -95.1611 114° Southeast 307 353 7,400 -1,740 Descending Kansas City Center
12:24AM 39.5236 -95.0644 114° Southeast 304 350 5,700 -1,680 Descending Kansas City Center
12:25AM 39.4853 -94.9561 115° Southeast 295 339 4,100 -1,140 Descending Kansas City Center
12:26AM 39.4567 -94.8733 114° Southeast 257 296 3,500 -660 Descending Kansas City Center
12:27AM 39.4300 -94.7994 115° Southeast 237 273 2,800 -480 Descending Kansas City Center
12:28AM 39.4072 -94.7344 114° Southeast 209 241 2,600 -240 Descending Kansas City Center
12:29AM 39.3786 -94.6828 126° Southeast 152 175 2,400 -420 Descending Kansas City Center
12:30AM 39.3458 -94.6900 190° South 126 145 1,800 -600 Descending Kansas City Center